createdAt,value
2024-04-08T00:00:14.928Z,16.63
2024-04-08T00:01:44.838Z,16.63
2024-04-08T00:02:50.526Z,16.63
2024-04-08T00:03:52.115Z,16.65
2024-04-08T00:04:53.710Z,16.66
2024-04-08T00:05:56.067Z,16.65
2024-04-08T00:06:57.674Z,16.65
2024-04-08T00:07:59.311Z,16.64
2024-04-08T00:09:00.798Z,16.64
2024-04-08T00:10:03.578Z,16.56
2024-04-08T00:11:06.761Z,16.64
2024-04-08T00:12:08.780Z,16.64
2024-04-08T00:13:10.293Z,16.64
2024-04-08T00:14:11.790Z,16.64
2024-04-08T00:15:14.881Z,16.63
2024-04-08T00:16:16.390Z,16.62
2024-04-08T00:17:17.995Z,16.63
2024-04-08T00:18:19.519Z,16.64
2024-04-08T00:19:20.987Z,16.63
2024-04-08T00:20:22.571Z,16.63
2024-04-08T00:21:24.093Z,16.61
2024-04-08T00:22:25.866Z,16.58
2024-04-08T00:23:27.397Z,16.58
2024-04-08T00:24:28.914Z,16.56
2024-04-08T00:25:30.403Z,16.55
2024-04-08T00:26:31.928Z,16.53
2024-04-08T00:27:33.520Z,16.52
2024-04-08T00:28:37.964Z,16.52
2024-04-08T00:29:39.526Z,16.51
2024-04-08T00:30:41.345Z,16.51
2024-04-08T00:31:42.831Z,16.51
2024-04-08T00:32:44.573Z,16.51
2024-04-08T00:33:46.146Z,16.51
2024-04-08T00:34:47.799Z,16.51
2024-04-08T00:35:49.283Z,16.52
2024-04-08T00:36:50.966Z,16.53
2024-04-08T00:37:52.586Z,16.52
2024-04-08T00:38:54.092Z,16.52
2024-04-08T00:39:56.259Z,16.50
2024-04-08T00:41:04.018Z,16.48
2024-04-08T00:42:05.726Z,16.48
2024-04-08T00:43:08.517Z,16.46
2024-04-08T00:44:10.241Z,16.43
2024-04-08T00:45:11.900Z,16.43
2024-04-08T00:46:23.764Z,16.40
2024-04-08T00:47:25.506Z,16.41
2024-04-08T00:48:27.181Z,16.39
2024-04-08T00:49:31.148Z,16.39
2024-04-08T00:50:35.302Z,16.39
2024-04-08T00:51:36.866Z,16.40
2024-04-08T00:52:38.979Z,16.40
2024-04-08T00:53:41.807Z,16.40
2024-04-08T00:54:46.103Z,16.39
2024-04-08T00:55:49.889Z,16.39
2024-04-08T00:56:54.119Z,16.39
2024-04-08T00:57:57.293Z,16.37
2024-04-08T00:58:59.055Z,16.36
2024-04-08T01:00:00.661Z,16.34
2024-04-08T01:01:02.459Z,16.32
2024-04-08T01:02:07.062Z,16.30
2024-04-08T01:03:11.029Z,16.28
2024-04-08T01:04:13.330Z,16.28
2024-04-08T01:05:16.385Z,16.26
2024-04-08T01:06:17.915Z,16.25
2024-04-08T01:07:19.464Z,16.26
2024-04-08T01:08:21.026Z,16.24
2024-04-08T01:09:22.745Z,16.26
2024-04-08T01:10:24.530Z,16.26
2024-04-08T01:11:26.079Z,16.27
2024-04-08T01:12:28.125Z,16.27
2024-04-08T01:13:29.883Z,16.28
2024-04-08T01:14:32.001Z,16.29
2024-04-08T01:15:34.204Z,16.27
2024-04-08T01:16:36.554Z,16.28
2024-04-08T01:17:39.296Z,16.28
2024-04-08T01:18:41.259Z,16.28
2024-04-08T01:19:45.242Z,16.29
2024-04-08T01:20:46.808Z,16.30
2024-04-08T01:21:48.322Z,16.29
2024-04-08T01:22:54.649Z,16.29
2024-04-08T01:23:57.158Z,16.30
2024-04-08T01:24:59.654Z,16.30
2024-04-08T01:26:01.537Z,16.29
2024-04-08T01:27:03.235Z,16.29
2024-04-08T01:28:05.288Z,16.29
2024-04-08T01:29:07.242Z,16.28
2024-04-08T01:30:09.426Z,16.27
2024-04-08T01:31:11.024Z,16.26
2024-04-08T01:32:12.800Z,16.25
2024-04-08T01:33:14.365Z,16.25
2024-04-08T01:34:15.907Z,16.25
2024-04-08T01:35:17.603Z,16.25
2024-04-08T01:36:19.512Z,16.26
2024-04-08T01:37:21.087Z,16.27
2024-04-08T01:38:22.586Z,16.28
2024-04-08T01:39:24.798Z,16.27
2024-04-08T01:40:26.414Z,16.28
2024-04-08T01:41:28.039Z,16.28
2024-04-08T01:42:29.538Z,16.29
2024-04-08T01:43:31.382Z,16.28
2024-04-08T01:44:32.880Z,16.26
2024-04-08T01:45:34.486Z,16.24
2024-04-08T01:46:36.068Z,16.24
2024-04-08T01:47:37.850Z,16.20
2024-04-08T01:48:39.448Z,16.10
2024-04-08T01:49:40.937Z,16.14
2024-04-08T01:50:42.861Z,16.13
2024-04-08T01:51:44.518Z,16.09
2024-04-08T01:52:45.980Z,16.07
2024-04-08T01:53:47.562Z,16.06
2024-04-08T01:54:49.116Z,16.03
2024-04-08T01:55:50.685Z,15.96
2024-04-08T01:56:52.216Z,16.01
2024-04-08T01:57:54.074Z,16.00
2024-04-08T01:58:55.674Z,16.00
2024-04-08T01:59:57.203Z,15.99
2024-04-08T02:00:58.718Z,15.96
2024-04-08T02:02:00.334Z,15.94
2024-04-08T02:03:02.002Z,15.94
2024-04-08T02:04:03.747Z,15.92
2024-04-08T02:05:05.361Z,15.88
2024-04-08T02:06:07.020Z,15.86
2024-04-08T02:07:08.753Z,15.85
2024-04-08T02:08:10.245Z,15.81
2024-04-08T02:09:11.764Z,15.79
2024-04-08T02:10:13.292Z,15.78
2024-04-08T02:11:14.875Z,15.78
2024-04-08T02:12:16.746Z,15.77
2024-04-08T02:13:18.510Z,15.77
2024-04-08T02:14:20.011Z,15.75
2024-04-08T02:15:21.651Z,15.76
2024-04-08T02:16:23.215Z,15.74
2024-04-08T02:17:24.877Z,15.73
2024-04-08T02:18:26.396Z,15.73
2024-04-08T02:19:28.103Z,15.71
2024-04-08T02:20:29.618Z,15.69
2024-04-08T02:21:31.169Z,15.68
2024-04-08T02:22:33.441Z,15.67
2024-04-08T02:23:34.987Z,15.64
2024-04-08T02:24:36.477Z,15.63
2024-04-08T02:25:40.316Z,15.62
2024-04-08T02:26:42.683Z,15.60
2024-04-08T02:27:44.594Z,15.60
2024-04-08T02:28:46.078Z,15.59
2024-04-08T02:29:47.602Z,15.56
2024-04-08T02:30:49.176Z,15.56
2024-04-08T02:31:50.812Z,15.55
2024-04-08T02:32:52.578Z,15.54
2024-04-08T02:33:54.464Z,15.52
2024-04-08T02:34:56.061Z,15.50
2024-04-08T02:36:07.026Z,15.48
2024-04-08T02:37:08.821Z,15.40
2024-04-08T02:38:10.336Z,15.43
2024-04-08T02:39:12.513Z,15.42
2024-04-08T02:40:14.116Z,15.41
2024-04-08T02:41:15.882Z,15.40
2024-04-08T02:42:17.465Z,15.41
2024-04-08T02:43:19.171Z,15.40
2024-04-08T02:44:21.682Z,15.38
2024-04-08T02:45:23.277Z,15.37
2024-04-08T02:46:24.837Z,15.35
2024-04-08T02:47:26.405Z,15.33
2024-04-08T02:48:27.896Z,15.31
2024-04-08T02:49:29.514Z,15.29
2024-04-08T02:50:31.022Z,15.29
2024-04-08T02:51:32.596Z,15.20
2024-04-08T02:52:34.156Z,15.27
2024-04-08T02:53:35.727Z,15.26
2024-04-08T02:54:37.280Z,15.26
2024-04-08T02:55:38.889Z,15.26
2024-04-08T02:56:40.507Z,15.26
2024-04-08T02:57:42.447Z,15.25
2024-04-08T02:58:48.256Z,15.25
2024-04-08T02:59:49.831Z,15.24
2024-04-08T03:00:52.014Z,15.23
2024-04-08T03:01:53.539Z,15.22
2024-04-08T03:02:55.387Z,15.23
2024-04-08T03:03:56.926Z,15.14
2024-04-08T03:04:58.616Z,15.14
2024-04-08T03:06:11.104Z,15.19
2024-04-08T03:07:12.662Z,15.15
2024-04-08T03:08:14.240Z,15.12
2024-04-08T03:09:15.724Z,15.10
2024-04-08T03:10:17.329Z,15.09
2024-04-08T03:11:18.832Z,15.07
2024-04-08T03:12:20.481Z,15.07
2024-04-08T03:13:23.826Z,15.06
2024-04-08T03:14:25.514Z,15.03
2024-04-08T03:15:27.230Z,15.02
2024-04-08T03:16:29.045Z,15.01
2024-04-08T03:17:30.642Z,15.00
2024-04-08T03:18:32.499Z,14.99
2024-04-08T03:19:33.991Z,14.96
2024-04-08T03:20:35.660Z,14.96
2024-04-08T03:21:37.186Z,14.93
2024-04-08T03:22:38.657Z,14.91
2024-04-08T03:23:40.252Z,14.88
2024-04-08T03:24:42.073Z,14.87
2024-04-08T03:25:43.602Z,14.84
2024-04-08T03:26:45.272Z,14.83
2024-04-08T03:27:46.801Z,14.83
2024-04-08T03:28:48.385Z,14.83
2024-04-08T03:29:53.029Z,14.83
2024-04-08T03:30:56.876Z,14.83
2024-04-08T03:31:58.383Z,14.81
2024-04-08T03:32:59.995Z,14.81
2024-04-08T03:34:01.628Z,14.79
2024-04-08T03:35:03.598Z,14.79
2024-04-08T03:36:09.986Z,14.75
2024-04-08T03:37:11.779Z,14.74
2024-04-08T03:38:13.900Z,14.73
2024-04-08T03:39:15.614Z,14.73
2024-04-08T03:40:17.210Z,14.71
2024-04-08T03:41:18.699Z,14.69
2024-04-08T03:42:21.852Z,14.68
2024-04-08T03:43:23.372Z,14.68
2024-04-08T03:44:24.995Z,14.67
2024-04-08T03:45:26.478Z,14.64
2024-04-08T03:46:28.218Z,14.65
2024-04-08T03:47:29.730Z,14.63
2024-04-08T03:48:31.529Z,14.62
2024-04-08T03:49:33.681Z,14.62
2024-04-08T03:50:35.191Z,14.59
2024-04-08T03:51:36.814Z,14.60
2024-04-08T03:52:38.356Z,14.57
2024-04-08T03:53:40.622Z,14.56
2024-04-08T03:54:42.508Z,14.55
2024-04-08T03:55:45.645Z,14.55
2024-04-08T03:56:47.564Z,14.53
2024-04-08T03:57:49.150Z,14.52
2024-04-08T03:58:50.697Z,14.51
2024-04-08T03:59:53.287Z,14.50
2024-04-08T04:00:55.031Z,14.49
2024-04-08T04:01:56.597Z,14.50
2024-04-08T04:02:58.155Z,14.50
2024-04-08T04:04:00.824Z,14.49
2024-04-08T04:05:03.092Z,14.47
2024-04-08T04:06:05.520Z,14.46
2024-04-08T04:07:07.011Z,14.45
2024-04-08T04:08:08.791Z,14.45
2024-04-08T04:09:11.417Z,14.44
2024-04-08T04:10:13.082Z,14.45
2024-04-08T04:11:14.737Z,14.48
2024-04-08T04:12:16.240Z,14.50
2024-04-08T04:13:17.966Z,14.51
2024-04-08T04:14:19.515Z,14.50
2024-04-08T04:15:21.429Z,14.49
2024-04-08T04:16:23.766Z,14.50
2024-04-08T04:17:25.292Z,14.49
2024-04-08T04:18:26.796Z,14.52
2024-04-08T04:19:28.284Z,14.53
2024-04-08T04:20:46.402Z,14.51
2024-04-08T04:21:48.021Z,14.54
2024-04-08T04:22:49.498Z,14.54
2024-04-08T04:23:51.271Z,14.55
2024-04-08T04:24:52.861Z,14.59
2024-04-08T04:25:59.196Z,14.53
2024-04-08T04:27:00.936Z,14.62
2024-04-08T04:28:02.806Z,14.63
2024-04-08T04:29:04.287Z,14.64
2024-04-08T04:30:06.369Z,14.67
2024-04-08T04:31:07.970Z,14.68
2024-04-08T04:32:09.653Z,14.68
2024-04-08T04:33:12.486Z,14.68
2024-04-08T04:34:14.161Z,14.68
2024-04-08T04:35:16.462Z,14.70
2024-04-08T04:36:18.007Z,14.72
2024-04-08T04:37:19.809Z,14.74
2024-04-08T04:38:21.413Z,14.76
2024-04-08T04:39:22.915Z,14.78
2024-04-08T04:40:24.437Z,14.78
2024-04-08T04:41:26.459Z,14.80
2024-04-08T04:42:27.947Z,14.81
2024-04-08T04:43:30.686Z,14.83
2024-04-08T04:44:32.207Z,14.85
2024-04-08T04:45:34.014Z,14.83
2024-04-08T04:46:35.588Z,14.84
2024-04-08T04:47:37.491Z,14.85
2024-04-08T04:48:39.023Z,14.86
2024-04-08T04:49:40.519Z,14.88
2024-04-08T04:50:42.234Z,14.91
2024-04-08T04:51:44.098Z,14.93
2024-04-08T04:52:45.843Z,14.96
2024-04-08T04:53:47.395Z,14.97
2024-04-08T04:54:48.997Z,14.99
2024-04-08T04:55:52.582Z,14.98
2024-04-08T04:56:54.193Z,14.94
2024-04-08T04:57:56.172Z,15.00
2024-04-08T04:58:57.767Z,15.03
2024-04-08T04:59:59.284Z,15.06
2024-04-08T05:01:00.795Z,15.09
2024-04-08T05:02:02.719Z,15.11
2024-04-08T05:03:04.748Z,15.14
2024-04-08T05:04:06.676Z,15.17
2024-04-08T05:05:09.538Z,15.21
2024-04-08T05:06:11.054Z,15.22
2024-04-08T05:07:12.614Z,15.25
2024-04-08T05:08:14.098Z,15.28
2024-04-08T05:09:15.639Z,15.29
2024-04-08T05:10:18.314Z,15.30
2024-04-08T05:11:19.851Z,15.31
2024-04-08T05:12:21.386Z,15.32
2024-04-08T05:13:22.902Z,15.35
2024-04-08T05:14:24.740Z,15.36
2024-04-08T05:15:27.047Z,15.39
2024-04-08T05:16:28.543Z,15.41
2024-04-08T05:17:30.273Z,15.43
2024-04-08T05:18:32.862Z,15.43
2024-04-08T05:19:34.377Z,15.45
2024-04-08T05:20:36.017Z,15.46
2024-04-08T05:21:37.832Z,15.48
2024-04-08T05:22:44.970Z,15.51
2024-04-08T05:23:46.470Z,15.53
2024-04-08T05:24:48.016Z,15.56
2024-04-08T05:25:50.134Z,15.58
2024-04-08T05:26:51.708Z,15.60
2024-04-08T05:27:53.274Z,15.60
2024-04-08T05:28:55.161Z,15.63
2024-04-08T05:29:56.906Z,15.66
2024-04-08T05:30:58.456Z,15.68
2024-04-08T05:32:00.064Z,15.71
2024-04-08T05:33:02.407Z,15.72
2024-04-08T05:34:04.088Z,15.73
2024-04-08T05:35:05.824Z,15.72
2024-04-08T05:36:07.340Z,15.81
2024-04-08T05:37:09.244Z,15.85
2024-04-08T05:38:11.686Z,15.89
2024-04-08T05:39:13.299Z,15.91
2024-04-08T05:40:17.380Z,15.93
2024-04-08T05:41:19.776Z,15.97
2024-04-08T05:42:21.314Z,16.01
2024-04-08T05:43:22.984Z,16.04
2024-04-08T05:44:24.702Z,16.06
2024-04-08T05:45:26.180Z,16.08
2024-04-08T05:46:27.657Z,16.14
2024-04-08T05:47:29.206Z,16.17
2024-04-08T05:48:31.145Z,16.20
2024-04-08T05:49:32.656Z,16.22
2024-04-08T05:50:34.804Z,16.26
2024-04-08T05:51:36.386Z,16.32
2024-04-08T05:52:37.873Z,16.38
2024-04-08T05:53:39.529Z,16.43
2024-04-08T05:54:41.156Z,16.49
2024-04-08T05:55:42.960Z,16.53
2024-04-08T05:56:44.479Z,16.58
2024-04-08T05:57:46.253Z,16.62
2024-04-08T05:58:47.856Z,16.65
2024-04-08T05:59:49.565Z,16.69
2024-04-08T06:00:51.083Z,16.71
2024-04-08T06:01:52.620Z,16.76
2024-04-08T06:02:55.072Z,16.78
2024-04-08T06:03:56.663Z,16.82
2024-04-08T06:04:58.516Z,16.86
2024-04-08T06:06:00.265Z,16.89
2024-04-08T06:07:02.047Z,16.92
2024-04-08T06:08:03.819Z,16.95
2024-04-08T06:09:08.757Z,16.98
2024-04-08T06:10:10.534Z,17.03
2024-04-08T06:11:12.103Z,17.07
2024-04-08T06:12:13.618Z,17.15
2024-04-08T06:13:15.201Z,17.19
2024-04-08T06:14:16.955Z,17.23
2024-04-08T06:15:18.523Z,17.27
2024-04-08T06:16:20.055Z,17.30
2024-04-08T06:17:22.296Z,17.34
2024-04-08T06:18:24.134Z,17.38
2024-04-08T06:19:25.845Z,17.43
2024-04-08T06:20:27.926Z,17.48
2024-04-08T06:21:29.518Z,17.54
2024-04-08T06:22:31.553Z,17.60
2024-04-08T06:23:33.073Z,17.67
2024-04-08T06:24:34.795Z,17.74
2024-04-08T06:25:36.356Z,17.81
2024-04-08T06:26:38.446Z,17.87
2024-04-08T06:27:39.997Z,17.92
2024-04-08T06:28:41.499Z,18.00
2024-04-08T06:29:43.676Z,18.09
2024-04-08T06:30:45.153Z,18.17
2024-04-08T06:31:46.732Z,18.25
2024-04-08T06:32:49.727Z,18.32
2024-04-08T06:33:51.256Z,18.41
2024-04-08T06:34:52.817Z,18.47
2024-04-08T06:35:54.317Z,18.54
2024-04-08T06:36:55.808Z,18.60
2024-04-08T06:37:57.431Z,18.67
2024-04-08T06:38:59.209Z,18.75
2024-04-08T06:40:00.803Z,18.83
2024-04-08T06:41:02.883Z,18.92
2024-04-08T06:42:04.724Z,19.00
2024-04-08T06:43:06.442Z,19.10
2024-04-08T06:44:07.943Z,19.19
2024-04-08T06:45:09.993Z,19.27
2024-04-08T06:46:11.537Z,19.36
2024-04-08T06:47:13.054Z,19.43
2024-04-08T06:48:14.665Z,19.51
2024-04-08T06:49:16.232Z,19.56
2024-04-08T06:50:17.839Z,19.62
2024-04-08T06:51:19.401Z,19.67
2024-04-08T06:52:20.897Z,19.74
2024-04-08T06:53:22.663Z,19.80
2024-04-08T06:54:24.180Z,19.85
2024-04-08T06:55:26.155Z,19.90
2024-04-08T06:56:27.769Z,19.96
2024-04-08T06:57:29.329Z,20.02
2024-04-08T06:58:31.308Z,20.08
2024-04-08T06:59:32.807Z,20.13
2024-04-08T07:00:34.411Z,20.17
2024-04-08T07:01:35.908Z,20.22
2024-04-08T07:02:37.519Z,20.25
2024-04-08T07:03:39.021Z,20.31
2024-04-08T07:04:41.467Z,20.40
2024-04-08T07:05:46.065Z,20.47
2024-04-08T07:06:47.610Z,20.54
2024-04-08T07:07:49.103Z,20.58
2024-04-08T07:08:50.909Z,20.62
2024-04-08T07:09:52.439Z,20.61
2024-04-08T07:10:54.193Z,20.62
2024-04-08T07:11:59.335Z,20.62
2024-04-08T07:13:00.965Z,20.61
2024-04-08T07:14:02.525Z,20.60
2024-04-08T07:15:04.733Z,20.57
2024-04-08T07:16:07.252Z,20.55
2024-04-08T07:17:08.879Z,20.54
2024-04-08T07:18:10.839Z,20.54
2024-04-08T07:19:12.359Z,20.51
2024-04-08T07:20:13.947Z,20.50
2024-04-08T07:21:15.527Z,20.47
2024-04-08T07:22:17.118Z,20.47
2024-04-08T07:23:18.796Z,20.48
2024-04-08T07:24:20.305Z,20.48
2024-04-08T07:25:22.102Z,20.47
2024-04-08T07:26:23.807Z,20.47
2024-04-08T07:27:25.318Z,20.45
2024-04-08T07:28:26.845Z,20.46
2024-04-08T07:29:28.327Z,20.47
2024-04-08T07:30:30.873Z,20.46
2024-04-08T07:31:32.893Z,20.50
2024-04-08T07:32:34.529Z,20.53
2024-04-08T07:33:36.133Z,20.58
2024-04-08T07:34:37.653Z,20.65
2024-04-08T07:35:40.022Z,20.69
2024-04-08T07:36:41.655Z,20.74
2024-04-08T07:37:43.338Z,20.78
2024-04-08T07:38:56.853Z,20.75
2024-04-08T07:40:03.491Z,20.83
2024-04-08T07:41:05.012Z,20.86
2024-04-08T07:42:07.358Z,20.91
2024-04-08T07:43:09.006Z,20.95
2024-04-08T07:44:10.867Z,20.98
2024-04-08T07:45:12.871Z,21.04
2024-04-08T07:46:15.392Z,21.05
2024-04-08T07:47:17.351Z,21.06
2024-04-08T07:48:20.303Z,21.08
2024-04-08T07:49:22.679Z,21.08
2024-04-08T07:50:24.264Z,21.11
2024-04-08T07:51:25.775Z,21.16
2024-04-08T07:52:27.469Z,21.21
2024-04-08T07:53:29.095Z,21.24
2024-04-08T07:54:30.724Z,21.29
2024-04-08T07:55:32.322Z,21.31
2024-04-08T07:56:34.076Z,21.35
2024-04-08T07:57:35.743Z,21.41
2024-04-08T07:58:37.411Z,21.47
2024-04-08T07:59:39.080Z,21.54
2024-04-08T08:00:46.251Z,21.60
2024-04-08T08:01:52.059Z,21.66
2024-04-08T08:02:53.710Z,21.70
2024-04-08T08:03:55.314Z,21.76
2024-04-08T08:04:57.002Z,21.83
2024-04-08T08:06:00.799Z,21.89
2024-04-08T08:07:04.854Z,21.93
2024-04-08T08:08:06.644Z,21.96
2024-04-08T08:09:08.551Z,22.00
2024-04-08T08:10:10.507Z,22.02
2024-04-08T08:11:12.697Z,22.05
2024-04-08T08:12:14.318Z,22.09
2024-04-08T08:13:15.846Z,22.13
2024-04-08T08:14:17.358Z,22.15
2024-04-08T08:15:19.255Z,22.17
2024-04-08T08:16:20.819Z,22.18
2024-04-08T08:17:26.621Z,22.21
2024-04-08T08:18:29.715Z,22.23
2024-04-08T08:19:31.289Z,22.30
2024-04-08T08:20:34.226Z,22.35
2024-04-08T08:21:35.753Z,22.38
2024-04-08T08:22:37.316Z,22.44
2024-04-08T08:23:38.941Z,22.49
2024-04-08T08:24:40.447Z,22.51
2024-04-08T08:25:41.959Z,22.52
2024-04-08T08:26:44.039Z,22.57
2024-04-08T08:27:45.551Z,22.64
2024-04-08T08:28:47.559Z,22.70
2024-04-08T08:29:51.302Z,22.75
2024-04-08T08:30:53.599Z,22.79
2024-04-08T08:31:56.654Z,22.81
2024-04-08T08:32:59.547Z,22.84
2024-04-08T08:34:01.472Z,22.88
2024-04-08T08:35:04.424Z,22.93
2024-04-08T08:36:06.673Z,22.98
2024-04-08T08:37:09.544Z,23.02
2024-04-08T08:38:11.076Z,23.00
2024-04-08T08:39:12.790Z,23.10
2024-04-08T08:40:17.706Z,23.16
2024-04-08T08:41:23.775Z,23.23
2024-04-08T08:42:29.478Z,23.31
2024-04-08T08:43:32.220Z,23.39
2024-04-08T08:44:35.055Z,23.44
2024-04-08T08:45:41.682Z,23.48
2024-04-08T08:46:44.402Z,23.53
2024-04-08T08:47:46.539Z,23.59
2024-04-08T08:48:50.799Z,23.65
2024-04-08T08:49:54.367Z,23.70
2024-04-08T08:50:59.134Z,23.74
2024-04-08T08:52:04.689Z,23.75
2024-04-08T08:53:10.020Z,23.82
2024-04-08T08:54:11.628Z,23.87
2024-04-08T08:55:13.385Z,23.91
2024-04-08T08:56:18.185Z,23.97
2024-04-08T08:57:19.982Z,24.00
2024-04-08T08:58:22.140Z,24.04
2024-04-08T08:59:24.044Z,24.10
2024-04-08T09:00:25.730Z,24.15
2024-04-08T09:01:27.572Z,24.16
2024-04-08T09:02:31.292Z,24.19
2024-04-08T09:03:34.097Z,24.25
2024-04-08T09:04:36.041Z,24.28
2024-04-08T09:05:37.650Z,24.30
2024-04-08T09:06:54.523Z,24.31
2024-04-08T09:07:56.110Z,24.33
2024-04-08T09:08:57.839Z,24.34
2024-04-08T09:10:00.502Z,24.46
2024-04-08T09:11:07.326Z,24.54
2024-04-08T09:12:12.056Z,24.62
2024-04-08T09:13:26.904Z,24.68
2024-04-08T09:14:30.162Z,24.75
2024-04-08T09:15:31.789Z,24.82
2024-04-08T09:16:33.470Z,24.89
2024-04-08T09:17:35.082Z,24.92
2024-04-08T09:18:36.641Z,24.94
2024-04-08T09:19:38.211Z,24.95
2024-04-08T09:20:40.126Z,24.94
2024-04-08T09:21:42.684Z,24.87
2024-04-08T09:22:44.500Z,24.92
2024-04-08T09:23:48.944Z,24.91
2024-04-08T09:24:51.206Z,24.92
2024-04-08T09:25:52.847Z,24.88
2024-04-08T09:26:55.122Z,24.93
2024-04-08T09:27:57.027Z,24.93
2024-04-08T09:28:59.579Z,24.94
2024-04-08T09:30:01.554Z,24.96
2024-04-08T09:31:03.376Z,24.99
2024-04-08T09:32:08.609Z,25.03
2024-04-08T09:33:12.190Z,25.07
2024-04-08T09:34:13.952Z,25.05
2024-04-08T09:35:15.620Z,24.99
2024-04-08T09:36:17.791Z,24.93
2024-04-08T09:37:22.787Z,24.92
2024-04-08T09:38:25.031Z,24.96
2024-04-08T09:39:29.543Z,25.03
2024-04-08T09:40:32.165Z,25.06
2024-04-08T09:41:38.723Z,25.05
2024-04-08T09:42:41.728Z,25.01
2024-04-08T09:43:45.723Z,24.97
2024-04-08T09:44:47.997Z,24.98
2024-04-08T09:45:49.840Z,25.00
2024-04-08T09:46:52.055Z,25.01
2024-04-08T09:47:54.937Z,25.04
2024-04-08T09:49:00.109Z,25.02
2024-04-08T09:50:05.806Z,24.95
2024-04-08T09:51:08.873Z,25.01
2024-04-08T09:52:12.803Z,25.03
2024-04-08T09:53:14.317Z,25.04
2024-04-08T09:54:16.102Z,25.11
2024-04-08T09:55:18.333Z,25.19
2024-04-08T09:56:22.370Z,25.28
2024-04-08T09:57:26.556Z,25.35
2024-04-08T09:58:33.637Z,25.43
2024-04-08T09:59:36.488Z,25.48
2024-04-08T10:00:43.326Z,25.49
2024-04-08T10:01:45.612Z,25.50
2024-04-08T10:02:53.622Z,25.54
2024-04-08T10:04:00.342Z,25.59
2024-04-08T10:05:05.156Z,25.65
2024-04-08T10:06:10.757Z,25.72
2024-04-08T10:07:12.755Z,25.78
2024-04-08T10:08:14.489Z,25.83
2024-04-08T10:09:21.294Z,25.86
2024-04-08T10:10:25.122Z,25.88
2024-04-08T10:11:26.742Z,25.92
2024-04-08T10:12:32.403Z,25.93
2024-04-08T10:13:47.571Z,25.93
2024-04-08T10:14:49.256Z,25.94
2024-04-08T10:15:52.439Z,25.93
2024-04-08T10:16:54.171Z,25.95
2024-04-08T10:17:55.936Z,25.99
2024-04-08T10:18:57.692Z,26.05
2024-04-08T10:20:00.455Z,26.10
2024-04-08T10:21:03.507Z,26.19
2024-04-08T10:22:08.664Z,26.23
2024-04-08T10:23:10.798Z,26.33
2024-04-08T10:24:38.720Z,26.38
2024-04-08T10:25:43.475Z,26.48
2024-04-08T10:26:45.036Z,26.49
2024-04-08T10:27:46.661Z,26.54
2024-04-08T10:28:48.228Z,26.67
2024-04-08T10:29:57.302Z,26.76
2024-04-08T10:31:03.424Z,26.85
2024-04-08T10:32:06.926Z,26.87
2024-04-08T10:33:11.110Z,26.89
2024-04-08T10:34:14.429Z,26.91
2024-04-08T10:35:16.926Z,26.92
2024-04-08T10:36:18.925Z,26.91
2024-04-08T10:37:21.021Z,26.88
2024-04-08T10:38:23.237Z,26.84
2024-04-08T10:39:27.427Z,26.77
2024-04-08T10:40:29.215Z,26.74
2024-04-08T10:41:30.948Z,26.76
2024-04-08T10:42:32.532Z,26.76
2024-04-08T10:43:37.631Z,26.82
2024-04-08T10:44:39.169Z,26.88
2024-04-08T10:45:41.214Z,26.90
2024-04-08T10:46:43.678Z,26.88
2024-04-08T10:47:46.151Z,26.92
2024-04-08T10:48:48.996Z,26.97
2024-04-08T10:49:50.625Z,26.99
2024-04-08T10:50:52.221Z,27.02
2024-04-08T10:51:54.508Z,27.07
2024-04-08T10:52:56.459Z,27.15
2024-04-08T10:53:58.117Z,27.22
2024-04-08T10:54:59.804Z,27.26
2024-04-08T10:56:01.337Z,27.34
2024-04-08T10:57:03.355Z,27.41
2024-04-08T10:58:05.004Z,27.46
2024-04-08T10:59:07.750Z,27.51
2024-04-08T11:00:10.375Z,27.55
2024-04-08T11:01:12.902Z,27.59
2024-04-08T11:02:15.176Z,27.64
2024-04-08T11:03:17.817Z,27.68
2024-04-08T11:04:19.661Z,27.71
2024-04-08T11:05:22.371Z,27.73
2024-04-08T11:06:24.396Z,27.73
2024-04-08T11:07:26.494Z,27.74
2024-04-08T11:08:28.251Z,27.74
2024-04-08T11:09:29.940Z,27.77
2024-04-08T11:10:31.586Z,27.82
2024-04-08T11:11:33.766Z,27.85
2024-04-08T11:12:35.361Z,27.90
2024-04-08T11:13:36.855Z,27.91
2024-04-08T11:14:38.385Z,27.96
2024-04-08T11:15:41.347Z,28.03
2024-04-08T11:16:43.111Z,28.10
2024-04-08T11:17:44.845Z,28.10
2024-04-08T11:18:47.868Z,28.17
2024-04-08T11:20:02.211Z,28.22
2024-04-08T11:21:05.366Z,28.30
2024-04-08T11:22:10.906Z,28.36
2024-04-08T11:23:14.583Z,28.41
2024-04-08T11:24:16.377Z,28.47
2024-04-08T11:25:18.279Z,28.51
2024-04-08T11:26:20.074Z,28.56
2024-04-08T11:27:28.017Z,28.62
2024-04-08T11:28:30.143Z,28.66
2024-04-08T11:29:31.667Z,28.69
2024-04-08T11:30:36.030Z,28.66
2024-04-08T11:31:38.451Z,28.62
2024-04-08T11:32:40.406Z,28.63
2024-04-08T11:33:42.245Z,28.73
2024-04-08T11:34:44.232Z,28.86
2024-04-08T11:35:45.763Z,29.00
2024-04-08T11:36:47.275Z,29.08
2024-04-08T11:37:48.847Z,29.11
2024-04-08T11:38:50.717Z,29.15
2024-04-08T11:39:52.828Z,29.20
2024-04-08T11:40:55.143Z,29.32
2024-04-08T11:41:56.820Z,29.47
2024-04-08T11:42:58.632Z,29.60
2024-04-08T11:44:00.427Z,29.71
2024-04-08T11:45:07.915Z,29.79
2024-04-08T11:46:12.485Z,29.89
2024-04-08T11:47:18.194Z,29.97
2024-04-08T11:48:21.759Z,30.06
2024-04-08T11:49:23.352Z,30.04
2024-04-08T11:50:25.373Z,30.03
2024-04-08T11:51:27.017Z,29.99
2024-04-08T11:52:28.739Z,29.94
2024-04-08T11:53:30.289Z,29.94
2024-04-08T11:54:42.170Z,29.94
2024-04-08T11:55:53.573Z,29.90
2024-04-08T11:56:55.624Z,29.91
2024-04-08T11:57:57.152Z,29.91
2024-04-08T11:58:58.759Z,29.88
2024-04-08T12:00:01.016Z,29.81
2024-04-08T12:01:05.105Z,29.75
2024-04-08T12:02:08.127Z,29.60
2024-04-08T12:03:09.728Z,29.52
2024-04-08T12:04:11.528Z,29.43
2024-04-08T12:05:13.080Z,29.40
2024-04-08T12:06:15.716Z,29.44
2024-04-08T12:07:17.296Z,29.49
2024-04-08T12:08:18.963Z,29.53
2024-04-08T12:09:20.514Z,29.47
2024-04-08T12:10:22.147Z,29.47
2024-04-08T12:11:24.306Z,29.51
2024-04-08T12:12:25.837Z,29.54
2024-04-08T12:13:27.354Z,29.53
2024-04-08T12:14:28.986Z,29.49
2024-04-08T12:15:31.559Z,29.46
2024-04-08T12:16:33.240Z,29.48
2024-04-08T12:17:34.801Z,29.51
2024-04-08T12:18:36.389Z,29.53
2024-04-08T12:19:37.921Z,29.55
2024-04-08T12:20:39.594Z,29.58
2024-04-08T12:21:41.135Z,29.68
2024-04-08T12:22:42.680Z,29.80
2024-04-08T12:23:44.502Z,29.91
2024-04-08T12:24:46.092Z,29.99
2024-04-08T12:25:48.410Z,30.12
2024-04-08T12:26:50.311Z,30.29
2024-04-08T12:27:52.024Z,30.46
2024-04-08T12:28:53.552Z,30.65
2024-04-08T12:29:55.193Z,30.82
2024-04-08T12:30:59.008Z,30.91
2024-04-08T12:32:00.866Z,31.03
2024-04-08T12:33:02.674Z,31.02
2024-04-08T12:34:04.313Z,31.01
2024-04-08T12:35:08.265Z,31.04
2024-04-08T12:36:10.902Z,31.02
2024-04-08T12:37:12.593Z,30.99
2024-04-08T12:38:14.162Z,31.04
2024-04-08T12:39:16.022Z,31.12
2024-04-08T12:40:17.650Z,31.16
2024-04-08T12:41:19.212Z,31.28
2024-04-08T12:42:20.891Z,31.38
2024-04-08T12:43:22.541Z,31.45
2024-04-08T12:44:24.106Z,31.48
2024-04-08T12:45:25.814Z,31.53
2024-04-08T12:46:27.327Z,31.62
2024-04-08T12:47:29.259Z,31.75
2024-04-08T12:48:33.891Z,31.91
2024-04-08T12:49:39.945Z,32.05
2024-04-08T12:50:42.052Z,32.14
2024-04-08T12:51:46.806Z,32.20
2024-04-08T12:52:50.150Z,32.20
2024-04-08T12:53:51.797Z,32.27
2024-04-08T12:54:53.545Z,32.32
2024-04-08T12:55:56.762Z,32.31
2024-04-08T12:56:58.511Z,32.29
2024-04-08T12:58:01.007Z,32.31
2024-04-08T12:59:02.786Z,32.40
2024-04-08T13:00:05.922Z,32.44
2024-04-08T13:01:09.056Z,32.41
2024-04-08T13:02:10.887Z,32.40
2024-04-08T13:03:12.459Z,32.42
2024-04-08T13:04:14.285Z,32.46
2024-04-08T13:05:15.885Z,32.45
2024-04-08T13:06:17.705Z,32.51
2024-04-08T13:07:20.070Z,32.59
2024-04-08T13:08:21.990Z,32.65
2024-04-08T13:09:23.977Z,32.73
2024-04-08T13:10:25.569Z,32.76
2024-04-08T13:11:27.083Z,32.75
2024-04-08T13:12:28.766Z,32.76
2024-04-08T13:13:42.999Z,32.66
2024-04-08T13:14:46.112Z,32.55
2024-04-08T13:15:47.764Z,32.54
2024-04-08T13:16:49.323Z,32.57
2024-04-08T13:17:51.059Z,32.68
2024-04-08T13:18:53.207Z,32.86
2024-04-08T13:19:55.116Z,33.04
2024-04-08T13:20:56.662Z,33.15
2024-04-08T13:21:58.168Z,33.19
2024-04-08T13:22:59.726Z,33.24
2024-04-08T13:24:01.714Z,33.34